Terminal Aerodrome Forecast
Issued by NWS Detroit/Pontiac, MI

Home | Current Version | Previous Version | Text Only | Print | Product List | Glossary On
Versions: 1 2 3 4 5 6 7 8 9 10 11 12 13 14 15 16 17 18 19
637
FTUS43 KDTX 091138
TAFFNT
TAF
KFNT 091138Z 0912/1012 30013KT 1SM -SN BR OVC007
     FM091500 30013G20KT 2SM -SN OVC015
     FM100200 30013KT P6SM BKN035
     FM101000 30010KT 6SM -SHSN OVC025=

USA.gov is the U.S. government's official web portal to all federal, state and local government web resources and services.